createdAt,value
2022-07-30T00:00:25.798Z,21.90
2022-07-30T00:02:54.966Z,21.90
2022-07-30T00:05:22.893Z,21.90
2022-07-30T00:07:50.709Z,21.90
2022-07-30T00:10:18.823Z,21.90
2022-07-30T00:12:46.685Z,21.90
2022-07-30T00:15:14.517Z,21.90
2022-07-30T00:17:42.403Z,21.80
2022-07-30T00:20:15.935Z,21.80
2022-07-30T00:22:44.107Z,21.80
2022-07-30T00:25:12.155Z,21.80
2022-07-30T00:27:40.030Z,21.70
2022-07-30T00:30:09.084Z,21.70
2022-07-30T00:32:37.049Z,21.60
2022-07-30T00:35:05.700Z,21.60
2022-07-30T00:37:34.993Z,21.40
2022-07-30T00:40:03.306Z,21.40
2022-07-30T00:42:39.912Z,21.40
2022-07-30T00:45:09.425Z,21.30
2022-07-30T00:47:37.521Z,21.30
2022-07-30T00:50:07.404Z,21.30
2022-07-30T00:52:38.232Z,21.30
2022-07-30T00:55:07.615Z,21.20
2022-07-30T00:57:35.675Z,21.20
2022-07-30T01:00:04.506Z,21.10
2022-07-30T01:02:32.373Z,21.10
2022-07-30T01:05:00.388Z,21.00
2022-07-30T01:07:28.264Z,21.00
2022-07-30T01:09:57.463Z,21.00
2022-07-30T01:12:27.504Z,21.00
2022-07-30T01:14:57.950Z,21.00
2022-07-30T01:17:26.025Z,20.90
2022-07-30T01:19:58.743Z,21.00
2022-07-30T01:22:38.279Z,20.90
2022-07-30T01:25:15.141Z,20.90
2022-07-30T01:27:47.984Z,20.90
2022-07-30T01:30:19.098Z,20.90
2022-07-30T01:32:48.756Z,20.90
2022-07-30T01:35:20.494Z,20.80
2022-07-30T01:37:50.058Z,20.80
2022-07-30T01:40:18.268Z,20.70
2022-07-30T01:42:49.653Z,20.60
2022-07-30T01:45:19.563Z,20.60
2022-07-30T01:47:48.172Z,20.60
2022-07-30T01:50:18.503Z,20.60
2022-07-30T01:52:49.530Z,20.60
2022-07-30T01:55:19.719Z,20.60
2022-07-30T01:57:50.234Z,20.60
2022-07-30T02:00:18.754Z,20.60
2022-07-30T02:02:47.071Z,20.60
2022-07-30T02:05:15.169Z,20.60
2022-07-30T02:07:49.914Z,20.60
2022-07-30T02:10:24.255Z,20.60
2022-07-30T02:12:57.089Z,20.60
2022-07-30T02:15:32.127Z,20.50
2022-07-30T02:18:03.958Z,20.50
2022-07-30T02:20:35.828Z,20.50
2022-07-30T02:23:10.983Z,20.40
2022-07-30T02:25:43.136Z,20.40
2022-07-30T02:28:15.839Z,20.40
2022-07-30T02:30:49.254Z,20.40
2022-07-30T02:33:20.323Z,20.40
2022-07-30T02:35:49.555Z,20.40
2022-07-30T02:38:19.766Z,20.30
2022-07-30T02:40:48.906Z,20.30
2022-07-30T02:43:20.723Z,20.30
2022-07-30T02:45:49.901Z,20.40
2022-07-30T02:48:35.211Z,20.40
2022-07-30T02:51:05.313Z,20.40
2022-07-30T02:53:35.256Z,20.30
2022-07-30T02:56:04.079Z,20.40
2022-07-30T02:58:33.795Z,20.40
2022-07-30T03:01:03.370Z,20.40
2022-07-30T03:03:32.291Z,20.40
2022-07-30T03:06:02.285Z,20.40
2022-07-30T03:08:32.623Z,20.40
2022-07-30T03:11:01.476Z,20.40
2022-07-30T03:13:29.453Z,20.40
2022-07-30T03:16:00.049Z,20.40
2022-07-30T03:18:32.699Z,20.40
2022-07-30T03:21:01.590Z,20.40
2022-07-30T03:23:30.574Z,20.40
2022-07-30T03:26:01.809Z,20.40
2022-07-30T03:28:32.737Z,20.40
2022-07-30T03:31:02.918Z,20.40
2022-07-30T03:33:38.877Z,20.40
2022-07-30T03:36:07.970Z,20.30
2022-07-30T03:38:37.755Z,20.30
2022-07-30T03:41:06.292Z,20.30
2022-07-30T03:46:04.597Z,20.30
2022-07-30T03:48:35.082Z,20.30
2022-07-30T03:51:04.672Z,20.30
2022-07-30T03:53:33.684Z,20.30
2022-07-30T03:56:02.129Z,20.30
2022-07-30T03:58:34.051Z,20.30
2022-07-30T04:01:05.736Z,20.30
2022-07-30T04:03:34.797Z,20.30
2022-07-30T04:06:02.975Z,20.30
2022-07-30T04:08:31.003Z,20.20
2022-07-30T04:10:58.979Z,20.20
2022-07-30T04:13:26.848Z,20.00
2022-07-30T04:16:05.575Z,20.00
2022-07-30T04:18:52.721Z,20.00
2022-07-30T04:21:23.822Z,20.00
2022-07-30T04:24:04.128Z,20.00
2022-07-30T04:26:35.317Z,20.00
2022-07-30T04:29:06.136Z,20.00
2022-07-30T04:31:39.816Z,20.00
2022-07-30T04:34:13.615Z,20.00
2022-07-30T04:36:41.662Z,20.00
2022-07-30T04:39:09.927Z,20.00
2022-07-30T04:41:49.578Z,20.00
2022-07-30T04:44:18.791Z,20.10
2022-07-30T04:46:46.843Z,20.10
2022-07-30T04:49:17.664Z,20.10
2022-07-30T04:51:47.163Z,20.10
2022-07-30T04:54:16.252Z,20.10
2022-07-30T04:56:53.311Z,20.10
2022-07-30T04:59:24.559Z,20.10
2022-07-30T05:01:54.224Z,20.20
2022-07-30T05:04:24.895Z,20.30
2022-07-30T05:06:53.273Z,20.20
2022-07-30T05:09:21.820Z,20.30
2022-07-30T05:11:53.159Z,20.30
2022-07-30T05:14:21.049Z,20.30
2022-07-30T05:16:50.051Z,20.20
2022-07-30T05:19:18.755Z,20.20
2022-07-30T05:21:48.113Z,20.30
2022-07-30T05:24:16.074Z,20.40
2022-07-30T05:26:43.982Z,20.40
2022-07-30T05:29:18.647Z,20.40
2022-07-30T05:31:47.736Z,20.50
2022-07-30T05:34:15.573Z,20.50
2022-07-30T05:36:44.575Z,20.50
2022-07-30T05:39:13.907Z,20.50
2022-07-30T05:41:41.755Z,20.70
2022-07-30T05:44:09.719Z,20.70
2022-07-30T05:46:37.632Z,20.70
2022-07-30T05:49:06.393Z,20.80
2022-07-30T05:51:34.408Z,20.80
2022-07-30T05:54:02.201Z,20.90
2022-07-30T05:56:31.344Z,20.90
2022-07-30T05:58:59.210Z,20.90
2022-07-30T06:01:27.141Z,20.90
2022-07-30T06:03:54.976Z,20.80
2022-07-30T06:06:23.399Z,20.80
2022-07-30T06:08:51.899Z,20.90
2022-07-30T06:11:20.403Z,21.00
2022-07-30T06:13:49.557Z,21.10
2022-07-30T06:16:17.415Z,21.10
2022-07-30T06:18:45.260Z,21.30
2022-07-30T06:21:13.126Z,21.30
2022-07-30T06:23:40.994Z,21.30
2022-07-30T06:26:09.087Z,21.30
2022-07-30T06:28:38.791Z,21.40
2022-07-30T06:31:08.750Z,21.40
2022-07-30T06:33:36.763Z,21.50
2022-07-30T06:36:04.842Z,21.50
2022-07-30T06:38:32.811Z,21.60
2022-07-30T06:41:03.020Z,21.60
2022-07-30T06:43:32.601Z,21.60
2022-07-30T06:46:00.750Z,21.60
2022-07-30T06:48:31.641Z,21.70
2022-07-30T06:50:59.527Z,21.70
2022-07-30T06:53:27.482Z,21.80
2022-07-30T06:55:58.317Z,21.80
2022-07-30T06:58:29.549Z,21.70
2022-07-30T07:03:40.309Z,21.70
2022-07-30T07:06:10.241Z,21.60
2022-07-30T07:08:39.134Z,21.60
2022-07-30T07:11:07.316Z,21.70
2022-07-30T07:13:35.172Z,21.80
2022-07-30T07:16:03.306Z,21.80
2022-07-30T07:18:31.173Z,21.90
2022-07-30T07:20:59.143Z,22.00
2022-07-30T07:23:41.404Z,22.10
2022-07-30T07:26:10.624Z,22.20
2022-07-30T07:28:40.070Z,22.30
2022-07-30T07:31:08.327Z,22.40
2022-07-30T07:33:36.185Z,22.50
2022-07-30T07:36:04.624Z,22.60
2022-07-30T07:38:34.349Z,22.60
2022-07-30T07:41:02.211Z,22.70
2022-07-30T07:43:30.207Z,22.80
2022-07-30T07:45:58.434Z,22.90
2022-07-30T07:50:59.628Z,23.00
2022-07-30T07:53:28.260Z,23.10
2022-07-30T07:55:57.503Z,23.10
2022-07-30T07:58:26.418Z,23.10
2022-07-30T08:00:55.062Z,23.10
2022-07-30T08:03:22.956Z,23.20
2022-07-30T08:05:56.784Z,23.30
2022-07-30T08:08:33.296Z,23.30
2022-07-30T08:11:02.670Z,23.40
2022-07-30T08:16:18.652Z,23.50
2022-07-30T08:18:46.498Z,23.60
2022-07-30T08:21:15.293Z,23.60
2022-07-30T08:23:43.423Z,23.60
2022-07-30T08:28:43.039Z,23.50
2022-07-30T08:31:10.952Z,23.60
2022-07-30T08:33:38.794Z,23.70
2022-07-30T08:36:09.444Z,23.70
2022-07-30T08:38:38.277Z,23.70
2022-07-30T08:41:06.556Z,23.80
2022-07-30T08:43:36.902Z,23.90
2022-07-30T08:46:06.106Z,23.90
2022-07-30T08:48:35.480Z,24.00
2022-07-30T08:51:03.781Z,24.00
2022-07-30T08:53:34.106Z,24.00
2022-07-30T08:56:01.978Z,23.90
2022-07-30T08:58:31.127Z,24.00
2022-07-30T09:01:00.311Z,23.90
2022-07-30T09:03:28.153Z,23.80
2022-07-30T09:05:56.071Z,23.90
2022-07-30T09:08:23.908Z,23.90
2022-07-30T09:10:53.143Z,24.10
2022-07-30T09:13:26.278Z,24.10
2022-07-30T09:15:54.684Z,24.20
2022-07-30T09:18:31.896Z,24.10
2022-07-30T09:21:14.353Z,24.20
2022-07-30T09:23:42.457Z,24.30
2022-07-30T09:26:10.317Z,24.20
2022-07-30T09:28:38.173Z,24.30
2022-07-30T09:31:07.322Z,24.30
2022-07-30T09:33:38.611Z,24.30
2022-07-30T09:36:10.253Z,24.30
2022-07-30T09:38:49.650Z,24.30
2022-07-30T09:41:37.773Z,24.30
2022-07-30T09:44:06.770Z,24.40
2022-07-30T09:46:47.000Z,24.40
2022-07-30T09:49:17.682Z,24.40
2022-07-30T09:54:51.705Z,24.50
2022-07-30T09:57:26.207Z,24.50
2022-07-30T09:59:56.737Z,24.90
2022-07-30T10:02:32.307Z,25.10
2022-07-30T10:05:14.188Z,25.20
2022-07-30T10:07:49.338Z,25.20
2022-07-30T10:10:21.322Z,25.20
2022-07-30T10:12:51.938Z,25.20
2022-07-30T10:15:21.512Z,25.30
2022-07-30T10:17:50.365Z,26.90
2022-07-30T10:22:50.525Z,25.60
2022-07-30T10:25:20.814Z,25.60
2022-07-30T10:27:57.718Z,25.70
2022-07-30T10:30:28.136Z,25.60
2022-07-30T10:32:59.857Z,25.60
2022-07-30T10:35:34.727Z,25.60
2022-07-30T10:38:13.527Z,25.60
2022-07-30T10:40:48.688Z,25.80
2022-07-30T10:43:50.919Z,26.00
2022-07-30T10:46:30.255Z,26.10
2022-07-30T10:49:17.508Z,26.00
2022-07-30T10:51:50.637Z,25.80
2022-07-30T10:54:41.797Z,25.80
2022-07-30T10:57:14.953Z,25.90
2022-07-30T11:00:12.107Z,25.80
2022-07-30T11:02:41.490Z,26.00
2022-07-30T11:05:43.882Z,26.10
2022-07-30T11:08:42.876Z,26.10
2022-07-30T11:12:15.956Z,26.20
2022-07-30T11:14:58.686Z,26.40
2022-07-30T11:18:04.417Z,26.50
2022-07-30T11:20:33.095Z,26.40
2022-07-30T11:23:14.042Z,26.20
2022-07-30T11:25:50.150Z,26.20
2022-07-30T11:28:38.164Z,26.30
2022-07-30T11:31:49.858Z,26.40
2022-07-30T11:34:29.761Z,26.40
2022-07-30T11:40:10.811Z,26.60
2022-07-30T11:42:42.460Z,26.80
2022-07-30T11:45:26.848Z,26.80
2022-07-30T11:47:56.627Z,26.80
2022-07-30T11:50:27.196Z,26.90
2022-07-30T11:52:57.399Z,27.10
2022-07-30T11:55:27.836Z,27.10
2022-07-30T11:57:57.703Z,27.10
2022-07-30T12:00:26.072Z,27.10
2022-07-30T12:02:54.361Z,27.10
2022-07-30T12:05:26.871Z,27.30
2022-07-30T12:07:59.394Z,27.40
2022-07-30T12:10:27.696Z,27.40
2022-07-30T12:13:09.571Z,27.20
2022-07-30T12:15:39.934Z,27.30
2022-07-30T12:18:25.975Z,27.40
2022-07-30T12:28:26.475Z,27.40
2022-07-30T12:33:24.386Z,27.30
2022-07-30T12:38:23.059Z,27.40
2022-07-30T12:40:56.727Z,27.70
2022-07-30T12:43:46.032Z,27.70
2022-07-30T12:48:54.321Z,28.00
2022-07-30T12:51:24.163Z,28.10
2022-07-30T12:53:52.742Z,28.20
2022-07-30T12:56:21.912Z,28.30
2022-07-30T12:58:51.575Z,28.30
2022-07-30T13:01:19.599Z,28.30
2022-07-30T13:03:47.637Z,28.30
2022-07-30T13:06:17.541Z,28.40
2022-07-30T13:08:47.865Z,28.50
2022-07-30T13:11:16.331Z,28.50
2022-07-30T13:13:44.373Z,28.70
2022-07-30T13:16:14.200Z,28.70
2022-07-30T13:18:42.043Z,28.80
2022-07-30T13:23:40.675Z,28.60
2022-07-30T13:26:11.042Z,28.30
2022-07-30T13:31:07.658Z,28.10
2022-07-30T13:33:37.125Z,28.20
2022-07-30T13:36:05.194Z,28.20
2022-07-30T13:38:33.381Z,28.30
2022-07-30T13:41:03.009Z,28.30
2022-07-30T13:43:33.773Z,28.20
2022-07-30T13:46:02.944Z,28.30
2022-07-30T13:48:30.900Z,28.40
2022-07-30T13:51:01.532Z,28.50
2022-07-30T13:53:29.484Z,28.50
2022-07-30T13:55:59.333Z,28.40
2022-07-30T13:58:27.757Z,28.30
2022-07-30T14:00:55.651Z,28.20
2022-07-30T14:03:23.547Z,28.40
2022-07-30T14:05:51.490Z,28.50
2022-07-30T14:08:20.764Z,28.40
2022-07-30T14:10:48.657Z,28.40
2022-07-30T14:15:49.779Z,28.10
2022-07-30T14:18:17.718Z,28.00
2022-07-30T14:20:48.536Z,28.10
2022-07-30T14:25:46.436Z,28.20
2022-07-30T14:28:15.765Z,28.20
2022-07-30T14:30:43.780Z,28.20
2022-07-30T14:33:11.836Z,28.20
2022-07-30T14:35:39.781Z,28.10
2022-07-30T14:38:07.744Z,28.10
2022-07-30T14:40:35.555Z,28.10
2022-07-30T14:43:06.516Z,28.10
2022-07-30T14:45:35.400Z,26.10
2022-07-30T14:48:03.245Z,28.10
2022-07-30T14:50:31.092Z,28.30
2022-07-30T14:52:59.009Z,28.40
2022-07-30T14:55:26.908Z,28.50
2022-07-30T15:00:24.560Z,28.80
2022-07-30T15:02:52.354Z,28.80
2022-07-30T15:05:20.305Z,29.00
2022-07-30T15:07:48.105Z,29.10
2022-07-30T15:12:44.613Z,29.40
2022-07-30T15:15:12.957Z,29.50
2022-07-30T15:17:43.906Z,29.50
2022-07-30T15:20:12.589Z,29.60
2022-07-30T15:22:40.524Z,29.80
2022-07-30T15:25:09.730Z,29.90
2022-07-30T15:27:37.751Z,29.90
2022-07-30T15:30:06.669Z,29.90
2022-07-30T15:32:34.621Z,30.00
2022-07-30T15:35:04.503Z,30.20
2022-07-30T15:37:32.578Z,30.10
2022-07-30T15:40:01.188Z,30.10
2022-07-30T15:42:29.686Z,30.10
2022-07-30T15:45:16.138Z,29.90
2022-07-30T15:47:45.368Z,29.60
2022-07-30T15:50:15.391Z,29.50
2022-07-30T15:52:43.372Z,29.50
2022-07-30T15:55:11.700Z,29.40
2022-07-30T15:57:40.461Z,29.40
2022-07-30T16:00:09.470Z,29.40
2022-07-30T16:02:40.828Z,29.40
2022-07-30T16:05:13.318Z,29.40
2022-07-30T16:07:43.322Z,29.60
2022-07-30T16:10:11.951Z,29.80
2022-07-30T16:12:39.863Z,29.90
2022-07-30T16:15:10.643Z,29.90
2022-07-30T16:17:38.572Z,30.10
2022-07-30T16:20:07.686Z,30.50
2022-07-30T16:22:35.609Z,30.60
2022-07-30T16:25:05.254Z,30.70
2022-07-30T16:27:33.090Z,30.90
2022-07-30T16:30:00.847Z,30.90
2022-07-30T16:32:28.794Z,30.90
2022-07-30T16:34:56.799Z,30.90
2022-07-30T16:37:24.751Z,30.90
2022-07-30T16:39:52.969Z,30.80
2022-07-30T16:42:22.204Z,30.80
2022-07-30T16:44:52.384Z,30.90
2022-07-30T16:47:20.225Z,30.80
2022-07-30T16:49:48.009Z,30.80
2022-07-30T16:52:18.009Z,30.90
2022-07-30T16:54:45.802Z,31.00
2022-07-30T16:57:13.802Z,31.20
2022-07-30T16:59:46.275Z,31.30
2022-07-30T17:02:14.094Z,31.50
2022-07-30T17:04:42.399Z,31.70
2022-07-30T17:07:10.221Z,31.80
2022-07-30T17:09:38.022Z,31.80
2022-07-30T17:12:09.613Z,31.90
2022-07-30T17:14:42.112Z,32.00
2022-07-30T17:17:14.154Z,32.10
2022-07-30T17:19:42.560Z,32.20
2022-07-30T17:22:10.479Z,32.40
2022-07-30T17:24:38.317Z,32.60
2022-07-30T17:27:06.392Z,33.00
2022-07-30T17:29:34.328Z,33.50
2022-07-30T17:34:47.301Z,34.60
2022-07-30T17:37:15.281Z,34.70
2022-07-30T17:40:19.208Z,35.00
2022-07-30T17:42:31.113Z,35.20
2022-07-30T17:44:59.410Z,35.20
2022-07-30T17:47:28.969Z,35.90
2022-07-30T17:49:57.142Z,35.90
2022-07-30T17:52:26.642Z,35.70
2022-07-30T17:54:55.068Z,34.70
2022-07-30T17:57:22.896Z,34.50
2022-07-30T17:59:50.751Z,34.00
2022-07-30T18:02:20.127Z,33.40
2022-07-30T18:04:57.867Z,33.30
2022-07-30T18:07:25.759Z,33.00
2022-07-30T18:09:53.675Z,32.10
2022-07-30T18:12:21.812Z,32.00
2022-07-30T18:14:49.634Z,31.50
2022-07-30T18:17:17.460Z,30.70
2022-07-30T18:19:45.672Z,30.70
2022-07-30T18:22:15.127Z,30.40
2022-07-30T18:27:12.575Z,30.00
2022-07-30T18:29:40.566Z,29.90
2022-07-30T18:32:09.084Z,29.80
2022-07-30T18:34:37.338Z,29.90
2022-07-30T18:37:05.318Z,30.60
2022-07-30T18:39:34.450Z,31.20
2022-07-30T18:42:03.550Z,32.10
2022-07-30T18:44:32.051Z,32.50
2022-07-30T18:46:59.910Z,32.50
2022-07-30T18:49:36.598Z,32.50
2022-07-30T18:52:06.127Z,32.30
2022-07-30T18:54:36.948Z,31.70
2022-07-30T18:57:05.142Z,30.80
2022-07-30T18:59:32.988Z,30.50
2022-07-30T19:02:01.303Z,30.00
2022-07-30T19:04:29.497Z,29.60
2022-07-30T19:06:57.253Z,29.10
2022-07-30T19:09:25.125Z,29.00
2022-07-30T19:11:54.648Z,28.40
2022-07-30T19:14:22.430Z,28.30
2022-07-30T19:16:50.247Z,28.00
2022-07-30T19:19:19.835Z,27.90
2022-07-30T19:21:47.664Z,27.60
2022-07-30T19:24:15.481Z,27.60
2022-07-30T19:26:44.108Z,27.30
2022-07-30T19:29:13.419Z,27.30
2022-07-30T19:31:42.215Z,27.00
2022-07-30T19:34:12.180Z,26.90
2022-07-30T19:36:40.043Z,26.90
2022-07-30T19:39:11.061Z,26.80
2022-07-30T19:41:43.865Z,26.80
2022-07-30T19:44:18.673Z,26.70
2022-07-30T19:46:47.082Z,26.60
2022-07-30T19:49:17.179Z,26.50
2022-07-30T19:52:10.146Z,26.40
2022-07-30T19:54:36.697Z,26.30
2022-07-30T19:57:04.979Z,26.20
2022-07-30T19:59:46.470Z,26.20
2022-07-30T20:02:23.615Z,26.10
2022-07-30T20:04:51.578Z,26.00
2022-07-30T20:07:19.377Z,26.00
2022-07-30T20:09:48.496Z,26.00
2022-07-30T20:12:17.175Z,25.90
2022-07-30T20:14:46.420Z,25.90
2022-07-30T20:19:47.833Z,25.80
2022-07-30T20:22:16.838Z,25.80
2022-07-30T20:24:44.888Z,25.70
2022-07-30T20:27:35.712Z,25.70
2022-07-30T20:30:02.316Z,25.70
2022-07-30T20:32:30.269Z,25.60
2022-07-30T20:34:58.380Z,25.60
2022-07-30T20:37:27.537Z,25.60
2022-07-30T20:39:55.939Z,25.60
2022-07-30T20:42:24.564Z,25.60
2022-07-30T20:44:56.700Z,25.60
2022-07-30T20:47:37.406Z,25.50
2022-07-30T20:50:09.508Z,25.50
2022-07-30T20:52:39.334Z,25.40
2022-07-30T20:55:08.496Z,25.40
2022-07-30T21:00:25.413Z,25.40
2022-07-30T21:02:54.713Z,25.30
2022-07-30T21:05:22.694Z,25.30
2022-07-30T21:10:26.067Z,25.20
2022-07-30T21:13:02.945Z,25.20
2022-07-30T21:15:33.116Z,25.20
2022-07-30T21:18:03.032Z,25.20
2022-07-30T21:20:31.867Z,25.10
2022-07-30T21:23:05.646Z,25.10
2022-07-30T21:25:37.965Z,25.10
2022-07-30T21:28:27.550Z,25.10
2022-07-30T21:30:57.133Z,25.10
2022-07-30T21:33:31.012Z,25.10
2022-07-30T21:35:59.611Z,25.10
2022-07-30T21:38:27.756Z,25.10
2022-07-30T21:40:56.717Z,25.00
2022-07-30T21:43:30.103Z,25.00
2022-07-30T21:45:58.609Z,24.80
2022-07-30T21:48:32.393Z,24.80
2022-07-30T21:51:00.364Z,24.70
2022-07-30T21:53:44.384Z,24.60
2022-07-30T21:56:15.822Z,24.50
2022-07-30T21:58:44.276Z,24.50
2022-07-30T22:04:04.093Z,24.40
2022-07-30T22:06:38.294Z,24.40
2022-07-30T22:09:18.865Z,24.30
2022-07-30T22:12:01.218Z,24.30
2022-07-30T22:14:29.913Z,24.30
2022-07-30T22:17:00.442Z,24.40
2022-07-30T22:19:29.762Z,24.40
2022-07-30T22:21:57.644Z,24.40
2022-07-30T22:24:30.323Z,24.40
2022-07-30T22:27:12.053Z,24.40
2022-07-30T22:29:43.100Z,24.40
2022-07-30T22:32:15.924Z,24.40
2022-07-30T22:37:21.347Z,24.30
2022-07-30T22:39:50.603Z,24.30
2022-07-30T22:42:20.811Z,24.30
2022-07-30T22:44:52.832Z,24.30
2022-07-30T22:47:50.681Z,24.20
2022-07-30T22:50:14.883Z,24.20
2022-07-30T22:55:33.039Z,24.20
2022-07-30T22:58:01.253Z,24.20
2022-07-30T23:00:29.113Z,24.20
2022-07-30T23:02:57.733Z,24.20
2022-07-30T23:07:55.802Z,24.10
2022-07-30T23:10:25.601Z,24.10
2022-07-30T23:12:26.541Z,25.40
2022-07-30T23:12:30.688Z,24.20
2022-07-30T23:12:53.820Z,24.10
2022-07-30T23:15:21.869Z,24.00
2022-07-30T23:17:49.795Z,24.00
2022-07-30T23:20:20.195Z,23.90
2022-07-30T23:22:49.586Z,23.90
2022-07-30T23:25:17.662Z,23.80
2022-07-30T23:27:46.581Z,23.80
2022-07-30T23:30:15.208Z,23.80
2022-07-30T23:32:43.157Z,23.80
2022-07-30T23:35:11.643Z,23.80
2022-07-30T23:37:49.169Z,23.70
2022-07-30T23:40:19.418Z,23.70
2022-07-30T23:42:47.393Z,23.70
2022-07-30T23:45:15.351Z,23.70
2022-07-30T23:48:01.763Z,23.70
2022-07-30T23:50:31.959Z,23.60
2022-07-30T23:52:59.906Z,23.60
2022-07-30T23:55:29.632Z,23.60
2022-07-30T23:57:58.514Z,23.50
